sensor_id;sensor_type;location;lat;lon;timestamp;P1;durP1;ratioP1;P2;durP2;ratioP2
63955;SDS011;50131;52.084;5.228;2022-09-03T00:00:54;42.5;;;39.0;;
63955;SDS011;50131;52.084;5.228;2022-09-03T00:04:18;44.2;;;41.6;;
63955;SDS011;50131;52.084;5.228;2022-09-03T00:06:06;41.1;;;38.6;;
63955;SDS011;50131;52.084;5.228;2022-09-03T00:07:50;23.4;;;22.2;;
63955;SDS011;50131;52.084;5.228;2022-09-03T00:09:35;23.4;;;22.2;;
63955;SDS011;50131;52.084;5.228;2022-09-03T00:11:18;30.2;;;28.5;;
63955;SDS011;50131;52.084;5.228;2022-09-03T00:14:40;41.4;;;39.4;;
63955;SDS011;50131;52.084;5.228;2022-09-03T00:16:25;29.2;;;27.1;;
63955;SDS011;50131;52.084;5.228;2022-09-03T00:18:15;29.6;;;27.9;;
63955;SDS011;50131;52.084;5.228;2022-09-03T00:19:57;44.1;;;41.8;;
63955;SDS011;50131;52.084;5.228;2022-09-03T00:23:24;38.31;;;35.6;;
63955;SDS011;50131;52.084;5.228;2022-09-03T00:25:06;26.0;;;24.7;;
63955;SDS011;50131;52.084;5.228;2022-09-03T00:26:49;22.2;;;21.0;;
63955;SDS011;50131;52.084;5.228;2022-09-03T00:28:33;34.5;;;32.4;;
63955;SDS011;50131;52.084;5.228;2022-09-03T00:30:16;42.2;;;38.21;;
63955;SDS011;50131;52.084;5.228;2022-09-03T00:33:37;22.8;;;21.4;;
63955;SDS011;50131;52.084;5.228;2022-09-03T00:35:18;34.0;;;31.8;;
63955;SDS011;50131;52.084;5.228;2022-09-03T00:37:01;33.71;;;32.0;;
63955;SDS011;50131;52.084;5.228;2022-09-03T00:38:39;31.2;;;29.1;;
63955;SDS011;50131;52.084;5.228;2022-09-03T00:42:21;32.9;;;31.3;;
63955;SDS011;50131;52.084;5.228;2022-09-03T00:44:49;19.61;;;18.3;;
63955;SDS011;50131;52.084;5.228;2022-09-03T00:47:01;24.3;;;23.2;;
63955;SDS011;50131;52.084;5.228;2022-09-03T00:50:49;22.6;;;21.2;;
63955;SDS011;50131;52.084;5.228;2022-09-03T00:52:42;22.6;;;21.2;;
63955;SDS011;50131;52.084;5.228;2022-09-03T00:54:31;19.0;;;18.0;;
63955;SDS011;50131;52.084;5.228;2022-09-03T00:56:19;22.1;;;20.8;;
63955;SDS011;50131;52.084;5.228;2022-09-03T00:58:11;21.1;;;19.61;;
63955;SDS011;50131;52.084;5.228;2022-09-03T01:00:04;26.7;;;25.2;;
63955;SDS011;50131;52.084;5.228;2022-09-03T01:01:46;25.1;;;23.5;;
63955;SDS011;50131;52.084;5.228;2022-09-03T01:05:26;26.2;;;24.9;;
63955;SDS011;50131;52.084;5.228;2022-09-03T01:08:15;31.1;;;28.7;;
63955;SDS011;50131;52.084;5.228;2022-09-03T01:10:08;18.3;;;17.2;;
63955;SDS011;50131;52.084;5.228;2022-09-03T01:12:00;18.2;;;17.11;;
63955;SDS011;50131;52.084;5.228;2022-09-03T01:15:33;24.8;;;23.6;;
63955;SDS011;50131;52.084;5.228;2022-09-03T01:17:21;13.9;;;13.1;;
63955;SDS011;50131;52.084;5.228;2022-09-03T01:19:15;29.8;;;28.3;;
63955;SDS011;50131;52.084;5.228;2022-09-03T01:21:19;30.1;;;28.7;;
63955;SDS011;50131;52.084;5.228;2022-09-03T01:23:18;27.6;;;26.3;;
63955;SDS011;50131;52.084;5.228;2022-09-03T01:26:33;44.2;;;40.6;;
63955;SDS011;50131;52.084;5.228;2022-09-03T01:28:28;16.7;;;15.6;;
63955;SDS011;50131;52.084;5.228;2022-09-03T01:30:17;26.8;;;25.3;;
63955;SDS011;50131;52.084;5.228;2022-09-03T01:31:58;70.8;;;63.2;;
63955;SDS011;50131;52.084;5.228;2022-09-03T01:33:43;28.7;;;27.3;;
63955;SDS011;50131;52.084;5.228;2022-09-03T01:35:29;16.61;;;15.5;;
63955;SDS011;50131;52.084;5.228;2022-09-03T01:37:14;26.7;;;25.4;;
63955;SDS011;50131;52.084;5.228;2022-09-03T01:40:55;17.61;;;16.7;;
63955;SDS011;50131;52.084;5.228;2022-09-03T01:42:46;22.8;;;21.4;;
63955;SDS011;50131;52.084;5.228;2022-09-03T01:44:41;15.3;;;14.3;;
63955;SDS011;50131;52.084;5.228;2022-09-03T01:46:32;36.0;;;32.8;;
63955;SDS011;50131;52.084;5.228;2022-09-03T01:48:18;27.1;;;25.8;;
63955;SDS011;50131;52.084;5.228;2022-09-03T01:50:09;21.4;;;19.8;;
63955;SDS011;50131;52.084;5.228;2022-09-03T01:51:58;27.7;;;25.7;;
63955;SDS011;50131;52.084;5.228;2022-09-03T01:56:27;18.5;;;17.41;;
63955;SDS011;50131;52.084;5.228;2022-09-03T01:58:20;72.7;;;66.8;;
63955;SDS011;50131;52.084;5.228;2022-09-03T02:00:05;17.61;;;16.7;;
63955;SDS011;50131;52.084;5.228;2022-09-03T02:03:31;26.6;;;25.1;;
63955;SDS011;50131;52.084;5.228;2022-09-03T02:05:14;37.31;;;35.5;;
63955;SDS011;50131;52.084;5.228;2022-09-03T02:06:55;28.1;;;26.1;;
63955;SDS011;50131;52.084;5.228;2022-09-03T02:08:33;16.7;;;15.8;;
63955;SDS011;50131;52.084;5.228;2022-09-03T02:11:51;26.3;;;24.9;;
63955;SDS011;50131;52.084;5.228;2022-09-03T02:13:35;34.1;;;31.8;;
63955;SDS011;50131;52.084;5.228;2022-09-03T02:15:15;21.3;;;20.0;;
63955;SDS011;50131;52.084;5.228;2022-09-03T02:16:54;36.1;;;32.4;;
63955;SDS011;50131;52.084;5.228;2022-09-03T02:20:16;24.1;;;22.8;;
63955;SDS011;50131;52.084;5.228;2022-09-03T02:21:57;20.8;;;19.8;;
63955;SDS011;50131;52.084;5.228;2022-09-03T02:23:34;19.5;;;18.41;;
63955;SDS011;50131;52.084;5.228;2022-09-03T02:25:11;22.5;;;21.3;;
63955;SDS011;50131;52.084;5.228;2022-09-03T02:28:25;17.8;;;16.61;;
63955;SDS011;50131;52.084;5.228;2022-09-03T02:30:04;16.2;;;15.4;;
63955;SDS011;50131;52.084;5.228;2022-09-03T02:31:41;37.81;;;35.71;;
63955;SDS011;50131;52.084;5.228;2022-09-03T02:34:54;23.8;;;22.4;;
63955;SDS011;50131;52.084;5.228;2022-09-03T02:36:31;17.61;;;16.5;;
63955;SDS011;50131;52.084;5.228;2022-09-03T02:38:10;14.8;;;13.7;;
63955;SDS011;50131;52.084;5.228;2022-09-03T02:39:51;18.41;;;17.5;;
63955;SDS011;50131;52.084;5.228;2022-09-03T02:43:03;38.71;;;35.9;;
63955;SDS011;50131;52.084;5.228;2022-09-03T02:44:45;32.6;;;30.3;;
63955;SDS011;50131;52.084;5.228;2022-09-03T02:46:28;22.7;;;21.0;;
63955;SDS011;50131;52.084;5.228;2022-09-03T02:48:14;15.3;;;14.4;;
63955;SDS011;50131;52.084;5.228;2022-09-03T02:51:33;28.7;;;27.2;;
63955;SDS011;50131;52.084;5.228;2022-09-03T02:53:11;16.3;;;15.5;;
63955;SDS011;50131;52.084;5.228;2022-09-03T02:54:48;16.2;;;15.2;;
63955;SDS011;50131;52.084;5.228;2022-09-03T02:58:05;23.9;;;22.6;;
63955;SDS011;50131;52.084;5.228;2022-09-03T02:59:43;22.7;;;21.5;;
63955;SDS011;50131;52.084;5.228;2022-09-03T03:01:19;65.91;;;47.6;;
63955;SDS011;50131;52.084;5.228;2022-09-03T03:02:57;17.8;;;16.9;;
63955;SDS011;50131;52.084;5.228;2022-09-03T03:06:09;17.7;;;16.61;;
63955;SDS011;50131;52.084;5.228;2022-09-03T03:07:47;15.5;;;14.6;;
63955;SDS011;50131;52.084;5.228;2022-09-03T03:09:23;28.8;;;25.9;;
63955;SDS011;50131;52.084;5.228;2022-09-03T03:12:37;36.71;;;34.0;;
63955;SDS011;50131;52.084;5.228;2022-09-03T03:14:15;16.4;;;15.3;;
63955;SDS011;50131;52.084;5.228;2022-09-03T03:15:54;46.4;;;41.6;;
63955;SDS011;50131;52.084;5.228;2022-09-03T03:17:31;16.7;;;15.6;;
63955;SDS011;50131;52.084;5.228;2022-09-03T03:20:43;28.0;;;25.2;;
63955;SDS011;50131;52.084;5.228;2022-09-03T03:22:19;15.7;;;14.5;;
63955;SDS011;50131;52.084;5.228;2022-09-03T03:23:55;73.61;;;61.7;;
63955;SDS011;50131;52.084;5.228;2022-09-03T03:27:10;19.91;;;18.0;;
63955;SDS011;50131;52.084;5.228;2022-09-03T03:28:48;25.8;;;23.4;;
63955;SDS011;50131;52.084;5.228;2022-09-03T03:30:25;16.3;;;15.4;;
63955;SDS011;50131;52.084;5.228;2022-09-03T03:33:39;64.91;;;57.8;;
63955;SDS011;50131;52.084;5.228;2022-09-03T03:35:16;18.7;;;17.5;;
63955;SDS011;50131;52.084;5.228;2022-09-03T03:36:52;52.7;;;47.2;;
63955;SDS011;50131;52.084;5.228;2022-09-03T03:38:28;15.6;;;14.7;;
63955;SDS011;50131;52.084;5.228;2022-09-03T03:41:42;16.11;;;15.3;;
63955;SDS011;50131;52.084;5.228;2022-09-03T03:43:18;16.8;;;15.9;;
63955;SDS011;50131;52.084;5.228;2022-09-03T03:44:54;31.2;;;29.5;;
63955;SDS011;50131;52.084;5.228;2022-09-03T03:48:10;35.31;;;33.5;;
63955;SDS011;50131;52.084;5.228;2022-09-03T03:49:46;19.7;;;18.7;;
63955;SDS011;50131;52.084;5.228;2022-09-03T03:51:22;18.0;;;17.11;;
63955;SDS011;50131;52.084;5.228;2022-09-03T03:54:35;24.3;;;22.9;;
63955;SDS011;50131;52.084;5.228;2022-09-03T03:56:12;21.0;;;19.5;;
63955;SDS011;50131;52.084;5.228;2022-09-03T03:57:50;18.2;;;17.2;;
63955;SDS011;50131;52.084;5.228;2022-09-03T03:59:26;22.0;;;20.7;;
63955;SDS011;50131;52.084;5.228;2022-09-03T04:02:41;26.2;;;23.8;;
63955;SDS011;50131;52.084;5.228;2022-09-03T04:04:17;15.9;;;15.1;;
63955;SDS011;50131;52.084;5.228;2022-09-03T04:05:54;20.2;;;19.0;;
63955;SDS011;50131;52.084;5.228;2022-09-03T04:09:07;15.1;;;14.3;;
63955;SDS011;50131;52.084;5.228;2022-09-03T04:10:43;23.2;;;21.0;;
63955;SDS011;50131;52.084;5.228;2022-09-03T04:12:19;19.91;;;18.7;;
63955;SDS011;50131;52.084;5.228;2022-09-03T04:13:55;17.5;;;16.61;;
63955;SDS011;50131;52.084;5.228;2022-09-03T04:17:07;25.1;;;23.6;;
63955;SDS011;50131;52.084;5.228;2022-09-03T04:18:44;15.6;;;14.7;;
63955;SDS011;50131;52.084;5.228;2022-09-03T04:20:21;22.5;;;21.0;;
63955;SDS011;50131;52.084;5.228;2022-09-03T04:23:34;23.1;;;21.6;;
63955;SDS011;50131;52.084;5.228;2022-09-03T04:25:12;20.9;;;19.61;;
63955;SDS011;50131;52.084;5.228;2022-09-03T04:26:49;30.2;;;27.9;;
63955;SDS011;50131;52.084;5.228;2022-09-03T04:30:03;13.6;;;12.8;;
63955;SDS011;50131;52.084;5.228;2022-09-03T04:32:51;18.11;;;17.11;;
63955;SDS011;50131;52.084;5.228;2022-09-03T04:34:28;24.1;;;23.0;;
63955;SDS011;50131;52.084;5.228;2022-09-03T04:36:05;16.61;;;15.8;;
63955;SDS011;50131;52.084;5.228;2022-09-03T04:37:44;20.5;;;19.3;;
63955;SDS011;50131;52.084;5.228;2022-09-03T04:39:21;18.7;;;17.61;;
63955;SDS011;50131;52.084;5.228;2022-09-03T04:42:34;21.0;;;19.8;;
63955;SDS011;50131;52.084;5.228;2022-09-03T04:44:11;18.2;;;17.11;;
63955;SDS011;50131;52.084;5.228;2022-09-03T04:45:46;17.8;;;16.9;;
63955;SDS011;50131;52.084;5.228;2022-09-03T04:48:59;19.5;;;18.3;;
63955;SDS011;50131;52.084;5.228;2022-09-03T04:50:36;16.4;;;15.5;;
63955;SDS011;50131;52.084;5.228;2022-09-03T04:52:12;16.61;;;15.7;;
63955;SDS011;50131;52.084;5.228;2022-09-03T04:53:52;17.3;;;16.2;;
63955;SDS011;50131;52.084;5.228;2022-09-03T04:57:09;16.11;;;15.3;;
63955;SDS011;50131;52.084;5.228;2022-09-03T04:58:46;24.5;;;23.0;;
63955;SDS011;50131;52.084;5.228;2022-09-03T05:00:23;25.5;;;24.3;;
63955;SDS011;50131;52.084;5.228;2022-09-03T05:03:36;22.1;;;21.0;;
63955;SDS011;50131;52.084;5.228;2022-09-03T05:05:12;14.8;;;13.9;;
63955;SDS011;50131;52.084;5.228;2022-09-03T05:06:49;19.3;;;18.3;;
63955;SDS011;50131;52.084;5.228;2022-09-03T05:08:25;14.3;;;13.5;;
63955;SDS011;50131;52.084;5.228;2022-09-03T05:11:42;17.7;;;16.61;;
63955;SDS011;50131;52.084;5.228;2022-09-03T05:13:19;25.0;;;23.8;;
63955;SDS011;50131;52.084;5.228;2022-09-03T05:14:55;42.5;;;36.0;;
63955;SDS011;50131;52.084;5.228;2022-09-03T05:18:07;26.4;;;24.2;;
63955;SDS011;50131;52.084;5.228;2022-09-03T05:19:43;16.0;;;15.1;;
63955;SDS011;50131;52.084;5.228;2022-09-03T05:21:21;16.2;;;15.2;;
63955;SDS011;50131;52.084;5.228;2022-09-03T05:23:00;15.1;;;14.1;;
63955;SDS011;50131;52.084;5.228;2022-09-03T05:26:14;19.41;;;18.2;;
63955;SDS011;50131;52.084;5.228;2022-09-03T05:27:53;27.9;;;26.3;;
63955;SDS011;50131;52.084;5.228;2022-09-03T05:29:29;24.7;;;23.2;;
63955;SDS011;50131;52.084;5.228;2022-09-03T05:32:44;26.6;;;24.6;;
63955;SDS011;50131;52.084;5.228;2022-09-03T05:34:20;30.1;;;28.4;;
63955;SDS011;50131;52.084;5.228;2022-09-03T05:35:59;18.5;;;17.0;;
63955;SDS011;50131;52.084;5.228;2022-09-03T05:37:36;21.5;;;19.91;;
63955;SDS011;50131;52.084;5.228;2022-09-03T05:40:48;23.0;;;21.5;;
63955;SDS011;50131;52.084;5.228;2022-09-03T05:42:27;20.9;;;19.61;;
63955;SDS011;50131;52.084;5.228;2022-09-03T05:44:04;39.31;;;35.6;;
63955;SDS011;50131;52.084;5.228;2022-09-03T05:47:17;20.7;;;19.11;;
63955;SDS011;50131;52.084;5.228;2022-09-03T05:48:53;20.0;;;18.8;;
63955;SDS011;50131;52.084;5.228;2022-09-03T05:50:29;24.6;;;23.1;;
63955;SDS011;50131;52.084;5.228;2022-09-03T05:53:42;19.8;;;18.7;;
63955;SDS011;50131;52.084;5.228;2022-09-03T05:55:20;22.4;;;20.8;;
63955;SDS011;50131;52.084;5.228;2022-09-03T05:56:56;17.61;;;16.61;;
63955;SDS011;50131;52.084;5.228;2022-09-03T05:58:33;19.41;;;18.2;;
63955;SDS011;50131;52.084;5.228;2022-09-03T06:01:48;23.7;;;22.3;;
63955;SDS011;50131;52.084;5.228;2022-09-03T06:03:25;18.0;;;16.8;;
63955;SDS011;50131;52.084;5.228;2022-09-03T06:05:01;20.2;;;19.0;;
63955;SDS011;50131;52.084;5.228;2022-09-03T06:08:15;33.4;;;30.6;;
63955;SDS011;50131;52.084;5.228;2022-09-03T06:09:51;18.41;;;17.41;;
63955;SDS011;50131;52.084;5.228;2022-09-03T06:11:28;21.9;;;20.8;;
63955;SDS011;50131;52.084;5.228;2022-09-03T06:14:42;22.2;;;21.0;;
63955;SDS011;50131;52.084;5.228;2022-09-03T06:16:19;25.9;;;24.0;;
63955;SDS011;50131;52.084;5.228;2022-09-03T06:17:55;18.91;;;17.8;;
63955;SDS011;50131;52.084;5.228;2022-09-03T06:19:31;23.6;;;21.7;;
63955;SDS011;50131;52.084;5.228;2022-09-03T06:22:47;17.41;;;16.4;;
63955;SDS011;50131;52.084;5.228;2022-09-03T06:24:26;227.4;;;158.1;;
63955;SDS011;50131;52.084;5.228;2022-09-03T06:26:03;21.1;;;19.8;;
63955;SDS011;50131;52.084;5.228;2022-09-03T06:29:19;26.1;;;23.9;;
63955;SDS011;50131;52.084;5.228;2022-09-03T06:30:56;17.41;;;16.4;;
63955;SDS011;50131;52.084;5.228;2022-09-03T06:32:34;24.0;;;22.2;;
63955;SDS011;50131;52.084;5.228;2022-09-03T06:34:18;139.1;;;101.9;;
63955;SDS011;50131;52.084;5.228;2022-09-03T06:37:37;35.81;;;33.1;;
63955;SDS011;50131;52.084;5.228;2022-09-03T06:39:14;27.9;;;25.4;;
63955;SDS011;50131;52.084;5.228;2022-09-03T06:40:51;43.6;;;39.9;;
63955;SDS011;50131;52.084;5.228;2022-09-03T06:42:30;25.4;;;23.5;;
63955;SDS011;50131;52.084;5.228;2022-09-03T06:45:54;61.3;;;47.7;;
63955;SDS011;50131;52.084;5.228;2022-09-03T06:47:31;31.8;;;27.4;;
63955;SDS011;50131;52.084;5.228;2022-09-03T06:49:09;43.6;;;38.9;;
63955;SDS011;50131;52.084;5.228;2022-09-03T06:52:40;73.3;;;58.9;;
63955;SDS011;50131;52.084;5.228;2022-09-03T06:54:17;73.3;;;58.9;;
63955;SDS011;50131;52.084;5.228;2022-09-03T06:55:55;138.9;;;109.3;;
63955;SDS011;50131;52.084;5.228;2022-09-03T06:57:32;147.31;;;114.0;;
63955;SDS011;50131;52.084;5.228;2022-09-03T07:00:46;34.4;;;31.1;;
63955;SDS011;50131;52.084;5.228;2022-09-03T07:02:22;214.0;;;152.0;;
63955;SDS011;50131;52.084;5.228;2022-09-03T07:04:00;51.7;;;43.5;;
63955;SDS011;50131;52.084;5.228;2022-09-03T07:05:38;162.31;;;121.0;;
63955;SDS011;50131;52.084;5.228;2022-09-03T07:08:51;164.2;;;132.31;;
63955;SDS011;50131;52.084;5.228;2022-09-03T07:10:28;22.4;;;20.5;;
63955;SDS011;50131;52.084;5.228;2022-09-03T07:12:05;126.6;;;102.2;;
63955;SDS011;50131;52.084;5.228;2022-09-03T07:15:22;82.1;;;69.91;;
63955;SDS011;50131;52.084;5.228;2022-09-03T07:16:58;151.9;;;111.0;;
63955;SDS011;50131;52.084;5.228;2022-09-03T07:18:34;60.6;;;51.7;;
63955;SDS011;50131;52.084;5.228;2022-09-03T07:20:12;23.5;;;21.8;;
63955;SDS011;50131;52.084;5.228;2022-09-03T07:23:25;224.9;;;186.1;;
63955;SDS011;50131;52.084;5.228;2022-09-03T07:25:01;56.0;;;47.1;;
63955;SDS011;50131;52.084;5.228;2022-09-03T07:26:38;99.7;;;87.1;;
63955;SDS011;50131;52.084;5.228;2022-09-03T07:29:52;37.6;;;34.4;;
63955;SDS011;50131;52.084;5.228;2022-09-03T07:31:29;67.3;;;59.9;;
63955;SDS011;50131;52.084;5.228;2022-09-03T07:33:07;101.0;;;74.61;;
63955;SDS011;50131;52.084;5.228;2022-09-03T07:36:20;139.5;;;112.9;;
63955;SDS011;50131;52.084;5.228;2022-09-03T07:37:58;88.5;;;80.0;;
63955;SDS011;50131;52.084;5.228;2022-09-03T07:39:34;25.2;;;23.5;;
63955;SDS011;50131;52.084;5.228;2022-09-03T07:41:11;21.2;;;20.2;;
63955;SDS011;50131;52.084;5.228;2022-09-03T07:44:32;18.11;;;16.7;;
63955;SDS011;50131;52.084;5.228;2022-09-03T07:46:08;170.0;;;129.4;;
63955;SDS011;50131;52.084;5.228;2022-09-03T07:47:45;87.1;;;78.5;;
63955;SDS011;50131;52.084;5.228;2022-09-03T07:51:00;45.7;;;42.1;;
63955;SDS011;50131;52.084;5.228;2022-09-03T07:52:36;164.1;;;146.4;;
63955;SDS011;50131;52.084;5.228;2022-09-03T07:54:13;154.1;;;137.4;;
63955;SDS011;50131;52.084;5.228;2022-09-03T07:55:50;145.5;;;128.0;;
63955;SDS011;50131;52.084;5.228;2022-09-03T07:59:03;216.5;;;168.4;;
63955;SDS011;50131;52.084;5.228;2022-09-03T08:00:40;180.4;;;161.0;;
63955;SDS011;50131;52.084;5.228;2022-09-03T08:02:16;66.41;;;60.4;;
63955;SDS011;50131;52.084;5.228;2022-09-03T08:05:30;71.3;;;64.91;;
63955;SDS011;50131;52.084;5.228;2022-09-03T08:07:07;196.6;;;175.9;;
63955;SDS011;50131;52.084;5.228;2022-09-03T08:08:44;114.7;;;102.1;;
63955;SDS011;50131;52.084;5.228;2022-09-03T08:10:21;72.11;;;65.6;;
63955;SDS011;50131;52.084;5.228;2022-09-03T08:13:33;125.7;;;112.0;;
63955;SDS011;50131;52.084;5.228;2022-09-03T08:15:10;177.8;;;158.4;;
63955;SDS011;50131;52.084;5.228;2022-09-03T08:16:46;75.61;;;68.2;;
63955;SDS011;50131;52.084;5.228;2022-09-03T08:19:59;60.5;;;56.4;;
63955;SDS011;50131;52.084;5.228;2022-09-03T08:21:36;112.3;;;101.4;;
63955;SDS011;50131;52.084;5.228;2022-09-03T08:23:13;33.1;;;31.6;;
63955;SDS011;50131;52.084;5.228;2022-09-03T08:26:25;193.6;;;172.9;;
63955;SDS011;50131;52.084;5.228;2022-09-03T08:28:02;69.91;;;64.6;;
63955;SDS011;50131;52.084;5.228;2022-09-03T08:29:37;80.3;;;72.5;;
63955;SDS011;50131;52.084;5.228;2022-09-03T08:31:15;112.5;;;101.6;;
63955;SDS011;50131;52.084;5.228;2022-09-03T08:34:30;179.0;;;159.6;;
63955;SDS011;50131;52.084;5.228;2022-09-03T08:36:07;99.4;;;89.7;;
63955;SDS011;50131;52.084;5.228;2022-09-03T08:37:48;202.5;;;180.6;;
63955;SDS011;50131;52.084;5.228;2022-09-03T08:41:02;126.1;;;113.0;;
63955;SDS011;50131;52.084;5.228;2022-09-03T08:42:44;138.21;;;124.0;;
63955;SDS011;50131;52.084;5.228;2022-09-03T08:44:39;45.4;;;43.2;;
63955;SDS011;50131;52.084;5.228;2022-09-03T08:46:20;196.4;;;175.7;;
63955;SDS011;50131;52.084;5.228;2022-09-03T08:48:01;56.6;;;53.3;;
63955;SDS011;50131;52.084;5.228;2022-09-03T08:51:26;54.7;;;52.1;;
63955;SDS011;50131;52.084;5.228;2022-09-03T08:53:05;55.5;;;51.1;;
63955;SDS011;50131;52.084;5.228;2022-09-03T08:54:48;45.0;;;42.8;;
63955;SDS011;50131;52.084;5.228;2022-09-03T08:56:28;65.5;;;62.1;;
63955;SDS011;50131;52.084;5.228;2022-09-03T08:59:48;54.3;;;51.0;;
63955;SDS011;50131;52.084;5.228;2022-09-03T09:01:32;47.9;;;45.4;;
63955;SDS011;50131;52.084;5.228;2022-09-03T09:03:28;29.3;;;27.6;;
63955;SDS011;50131;52.084;5.228;2022-09-03T09:05:16;68.8;;;62.6;;
63955;SDS011;50131;52.084;5.228;2022-09-03T09:07:02;118.3;;;107.1;;
63955;SDS011;50131;52.084;5.228;2022-09-03T09:10:40;59.6;;;54.8;;
63955;SDS011;50131;52.084;5.228;2022-09-03T09:12:36;88.6;;;80.8;;
63955;SDS011;50131;52.084;5.228;2022-09-03T09:14:23;41.9;;;39.71;;
63955;SDS011;50131;52.084;5.228;2022-09-03T09:16:11;56.2;;;51.5;;
63955;SDS011;50131;52.084;5.228;2022-09-03T09:18:02;79.0;;;71.5;;
63955;SDS011;50131;52.084;5.228;2022-09-03T09:19:51;79.5;;;71.61;;
63955;SDS011;50131;52.084;5.228;2022-09-03T09:21:45;69.8;;;63.7;;
63955;SDS011;50131;52.084;5.228;2022-09-03T09:25:12;79.0;;;72.3;;
63955;SDS011;50131;52.084;5.228;2022-09-03T09:26:54;54.9;;;51.3;;
63955;SDS011;50131;52.084;5.228;2022-09-03T09:28:35;203.6;;;182.8;;
63955;SDS011;50131;52.084;5.228;2022-09-03T09:30:16;70.91;;;65.0;;
63955;SDS011;50131;52.084;5.228;2022-09-03T09:31:54;63.2;;;57.9;;
63955;SDS011;50131;52.084;5.228;2022-09-03T09:35:09;128.1;;;115.4;;
63955;SDS011;50131;52.084;5.228;2022-09-03T09:36:47;60.6;;;57.4;;
63955;SDS011;50131;52.084;5.228;2022-09-03T09:38:27;125.2;;;112.9;;
63955;SDS011;50131;52.084;5.228;2022-09-03T09:41:42;114.8;;;104.7;;
63955;SDS011;50131;52.084;5.228;2022-09-03T09:43:31;162.9;;;147.21;;
63955;SDS011;50131;52.084;5.228;2022-09-03T09:45:08;76.61;;;71.8;;
63955;SDS011;50131;52.084;5.228;2022-09-03T09:46:45;62.2;;;58.9;;
63955;SDS011;50131;52.084;5.228;2022-09-03T09:50:14;136.9;;;123.7;;
63955;SDS011;50131;52.084;5.228;2022-09-03T09:51:59;131.4;;;118.0;;
63955;SDS011;50131;52.084;5.228;2022-09-03T09:53:40;157.0;;;142.21;;
63955;SDS011;50131;52.084;5.228;2022-09-03T09:55:18;94.9;;;85.9;;
63955;SDS011;50131;52.084;5.228;2022-09-03T09:58:37;263.2;;;237.0;;
63955;SDS011;50131;52.084;5.228;2022-09-03T10:00:15;136.71;;;124.8;;
63955;SDS011;50131;52.084;5.228;2022-09-03T10:02:03;63.0;;;59.4;;
63955;SDS011;50131;52.084;5.228;2022-09-03T10:03:47;68.2;;;64.8;;
63955;SDS011;50131;52.084;5.228;2022-09-03T10:05:27;110.1;;;100.4;;
63955;SDS011;50131;52.084;5.228;2022-09-03T10:09:04;109.0;;;99.6;;
63955;SDS011;50131;52.084;5.228;2022-09-03T10:10:43;138.21;;;126.1;;
63955;SDS011;50131;52.084;5.228;2022-09-03T10:12:24;165.7;;;149.9;;
63955;SDS011;50131;52.084;5.228;2022-09-03T10:14:08;243.1;;;219.6;;
63955;SDS011;50131;52.084;5.228;2022-09-03T10:15:54;81.0;;;74.2;;
63955;SDS011;50131;52.084;5.228;2022-09-03T10:19:25;85.0;;;78.2;;
63955;SDS011;50131;52.084;5.228;2022-09-03T10:21:19;103.5;;;95.0;;
63955;SDS011;50131;52.084;5.228;2022-09-03T10:23:09;147.6;;;135.4;;
63955;SDS011;50131;52.084;5.228;2022-09-03T10:24:52;159.9;;;145.1;;
63955;SDS011;50131;52.084;5.228;2022-09-03T10:26:33;207.0;;;188.6;;
63955;SDS011;50131;52.084;5.228;2022-09-03T10:29:48;92.9;;;85.5;;
63955;SDS011;50131;52.084;5.228;2022-09-03T10:31:30;127.6;;;116.7;;
63955;SDS011;50131;52.084;5.228;2022-09-03T10:33:19;36.71;;;34.9;;
63955;SDS011;50131;52.084;5.228;2022-09-03T10:35:03;109.1;;;99.7;;
63955;SDS011;50131;52.084;5.228;2022-09-03T10:36:55;212.7;;;192.8;;
63955;SDS011;50131;52.084;5.228;2022-09-03T10:42:13;65.1;;;60.4;;
63955;SDS011;50131;52.084;5.228;2022-09-03T10:44:19;87.3;;;80.61;;
63955;SDS011;50131;52.084;5.228;2022-09-03T10:46:22;126.5;;;115.7;;
63955;SDS011;50131;52.084;5.228;2022-09-03T10:48:10;149.81;;;135.9;;
63955;SDS011;50131;52.084;5.228;2022-09-03T10:50:25;118.2;;;108.6;;
63955;SDS011;50131;52.084;5.228;2022-09-03T10:52:08;40.6;;;38.6;;
63955;SDS011;50131;52.084;5.228;2022-09-03T10:54:03;192.2;;;174.1;;
63955;SDS011;50131;52.084;5.228;2022-09-03T10:55:56;79.3;;;73.5;;
63955;SDS011;50131;52.084;5.228;2022-09-03T10:59:31;199.4;;;181.8;;
63955;SDS011;50131;52.084;5.228;2022-09-03T11:01:24;111.4;;;102.7;;
63955;SDS011;50131;52.084;5.228;2022-09-03T11:05:14;71.11;;;67.41;;
63955;SDS011;50131;52.084;5.228;2022-09-03T11:06:56;72.11;;;67.8;;
63955;SDS011;50131;52.084;5.228;2022-09-03T11:08:38;190.9;;;172.7;;
63955;SDS011;50131;52.084;5.228;2022-09-03T11:10:20;133.7;;;123.0;;
63955;SDS011;50131;52.084;5.228;2022-09-03T11:13:45;202.1;;;184.3;;
63955;SDS011;50131;52.084;5.228;2022-09-03T11:15:25;88.4;;;81.41;;
63955;SDS011;50131;52.084;5.228;2022-09-03T11:17:08;142.1;;;130.5;;
63955;SDS011;50131;52.084;5.228;2022-09-03T11:18:52;104.6;;;99.5;;
63955;SDS011;50131;52.084;5.228;2022-09-03T11:22:09;114.3;;;106.0;;
63955;SDS011;50131;52.084;5.228;2022-09-03T11:23:56;57.2;;;54.1;;
63955;SDS011;50131;52.084;5.228;2022-09-03T11:25:41;65.2;;;60.6;;
63955;SDS011;50131;52.084;5.228;2022-09-03T11:27:30;147.0;;;134.6;;
63955;SDS011;50131;52.084;5.228;2022-09-03T11:29:29;125.8;;;115.2;;
63955;SDS011;50131;52.084;5.228;2022-09-03T11:31:16;124.0;;;114.0;;
63955;SDS011;50131;52.084;5.228;2022-09-03T11:34:44;67.8;;;62.6;;
63955;SDS011;50131;52.084;5.228;2022-09-03T11:36:25;58.2;;;55.1;;
63955;SDS011;50131;52.084;5.228;2022-09-03T11:38:05;70.8;;;67.5;;
63955;SDS011;50131;52.084;5.228;2022-09-03T11:39:57;126.4;;;115.9;;
63955;SDS011;50131;52.084;5.228;2022-09-03T11:41:39;138.0;;;126.7;;
63955;SDS011;50131;52.084;5.228;2022-09-03T11:45:35;56.8;;;53.6;;
63955;SDS011;50131;52.084;5.228;2022-09-03T11:47:14;163.4;;;149.0;;
63955;SDS011;50131;52.084;5.228;2022-09-03T11:48:52;138.21;;;127.7;;
63955;SDS011;50131;52.084;5.228;2022-09-03T11:50:30;140.0;;;130.0;;
63955;SDS011;50131;52.084;5.228;2022-09-03T11:52:09;142.71;;;133.9;;
63955;SDS011;50131;52.084;5.228;2022-09-03T11:55:31;124.8;;;117.8;;
63955;SDS011;50131;52.084;5.228;2022-09-03T11:57:27;155.0;;;142.81;;
63955;SDS011;50131;52.084;5.228;2022-09-03T11:59:22;74.3;;;70.0;;
63955;SDS011;50131;52.084;5.228;2022-09-03T12:01:01;105.0;;;99.3;;
63955;SDS011;50131;52.084;5.228;2022-09-03T12:02:44;139.21;;;131.1;;
63955;SDS011;50131;52.084;5.228;2022-09-03T12:06:14;116.5;;;108.2;;
63955;SDS011;50131;52.084;5.228;2022-09-03T12:08:35;151.21;;;142.21;;
63955;SDS011;50131;52.084;5.228;2022-09-03T12:10:30;171.3;;;163.0;;
63955;SDS011;50131;52.084;5.228;2022-09-03T12:12:18;163.9;;;152.0;;
63955;SDS011;50131;52.084;5.228;2022-09-03T12:14:12;160.0;;;152.1;;
63955;SDS011;50131;52.084;5.228;2022-09-03T12:16:03;148.81;;;139.9;;
63955;SDS011;50131;52.084;5.228;2022-09-03T12:18:32;200.8;;;190.5;;
63955;SDS011;50131;52.084;5.228;2022-09-03T12:20:12;89.9;;;85.5;;
63955;SDS011;50131;52.084;5.228;2022-09-03T12:21:51;140.81;;;133.5;;
63955;SDS011;50131;52.084;5.228;2022-09-03T12:23:28;219.6;;;207.4;;
63955;SDS011;50131;52.084;5.228;2022-09-03T12:26:46;180.4;;;170.4;;
63955;SDS011;50131;52.084;5.228;2022-09-03T12:28:23;204.6;;;194.4;;
63955;SDS011;50131;52.084;5.228;2022-09-03T12:30:12;119.0;;;112.3;;
63955;SDS011;50131;52.084;5.228;2022-09-03T12:31:51;182.5;;;173.0;;
63955;SDS011;50131;52.084;5.228;2022-09-03T12:35:12;183.7;;;174.7;;
63955;SDS011;50131;52.084;5.228;2022-09-03T12:36:52;169.5;;;160.81;;
63955;SDS011;50131;52.084;5.228;2022-09-03T12:41:53;184.7;;;170.9;;